Mackinac Island, MI

1:04 AM EST on February 11, 2016 (GMT -0500)
Mackinac Island

Weather History for KMCD - November, 2012

Change the Weather History Date:

Tuesday, November 13, 2012

  Actual Average Record
Temperature  
Mean Temperature 33 °F -  
Max Temperature 37 °F 40 °F 60 °F (1999)
Min Temperature 29 °F 31 °F 10 °F (1986)
Degree Days  
Heating Degree Days 32    
Moisture  
Dew Point 24 °F    
Average Humidity 68    
Maximum Humidity 80    
Minimum Humidity 57    
Precipitation  
Precipitation 0.00 in - - ()
Sea Level Pressure  
Sea Level Pressure 30.30 in    
Wind  
Wind Speed 17 mph (WSW)    
Max Wind Speed 29 mph    
Max Gust Speed 34 mph    
Visibility 10 miles    
Events Snow    
Averages and records for this station are not official NWS values.
T = Trace of Precipitation, MM = Missing Value Source: NWS Daily Summary

Daily Weather History Graph

Daily Weather History Graph

Search for Another Location

Airport or City:

Trip Planner

Search our weather history database for the weather conditions in past years. The results will help you decide how hot, cold, wet, or windy it might be!

Date:

Astronomy

Nov. 13, 2012 Rise Set
Actual Time 7:36 AM EST 5:08 PM EST
Civil Twilight 7:04 AM EST 5:41 PM EST
Nautical Twilight 6:28 AM EST 6:17 PM EST
Astronomical Twilight 5:53 AM EST 6:52 PM EST
Moon 7:14 AM EST (11/13) 4:59 PM EST (11/13)
Length of Visible Light 10h 36m
Length of Day
9h 32m
Waning Crescent, 0% of the Moon is Illuminated
Nov 13
Waning Crescent
Nov 13
New
Nov 20
First Quarter
Nov 28
Full
Dec 6
Last Quarter

Hourly Weather History & Observations

Time (EST) Temp. Windchill Dew Point Humidity Pressure Visibility Wind Dir Wind Speed Gust Speed Precip Events Conditions
12:13 AM 30.2 °F 16.2 °F 16.7 °F 57% 30.07 in 10.0 mi West 25.3 mph 32.2 mph N/A   Overcast
12:34 AM 30.7 °F 17.2 °F 18.1 °F 60% 30.08 in 10.0 mi West 24.2 mph 32.2 mph N/A   Overcast
12:53 AM 30.4 °F 18.0 °F 18.5 °F 61% 30.08 in 10.0 mi West 19.6 mph 32.2 mph N/A   Mostly Cloudy
1:13 AM 30.7 °F 16.2 °F 18.9 °F 61% 30.09 in 10.0 mi West 28.8 mph 34.5 mph N/A   Overcast
1:34 AM 30.2 °F 18.1 °F 20.7 °F 68% 30.09 in 10.0 mi West 18.4 mph 29.9 mph N/A   Overcast
1:53 AM 30.7 °F 18.8 °F 20.5 °F 66% 30.10 in 10.0 mi West 18.4 mph 27.6 mph N/A   Overcast
2:13 AM 31.1 °F 20.1 °F 20.7 °F 65% 30.11 in 10.0 mi WNW 16.1 mph 33.4 mph N/A   Overcast
2:34 AM 29.8 °F 19.3 °F 21.0 °F 70% 30.12 in 10.0 mi WNW 13.8 mph 25.3 mph N/A   Overcast
2:53 AM 29.8 °F 18.0 °F 21.0 °F 70% 30.12 in 10.0 mi West 17.3 mph 26.5 mph N/A   Overcast
3:13 AM 30.0 °F 18.3 °F 21.2 °F 70% 30.13 in 10.0 mi West 17.3 mph 24.2 mph N/A   Overcast
3:33 AM 29.8 °F 18.0 °F 21.0 °F 70% 30.13 in 10.0 mi West 17.3 mph 25.3 mph N/A   Mostly Cloudy
3:53 AM 29.8 °F 17.3 °F 20.5 °F 68% 30.14 in 10.0 mi West 19.6 mph 25.3 mph N/A   Clear
4:13 AM 29.8 °F 18.4 °F 21.2 °F 70% 30.15 in 10.0 mi WNW 16.1 mph 25.3 mph N/A   Scattered Clouds
4:33 AM 29.8 °F 19.3 °F 22.1 °F 73% 30.15 in 10.0 mi West 13.8 mph 20.7 mph N/A   Overcast
4:53 AM 30.2 °F 18.9 °F 23.0 °F 75% 30.17 in 10.0 mi WNW 16.1 mph 20.7 mph N/A   Overcast
5:13 AM 30.2 °F 18.5 °F 23.0 °F 75% 30.17 in 10.0 mi West 17.3 mph 21.9 mph N/A   Scattered Clouds
5:33 AM 30.9 °F 20.2 °F 22.8 °F 72% 30.19 in 10.0 mi West 15.0 mph 25.3 mph N/A   Scattered Clouds
5:53 AM 30.2 °F 18.5 °F 22.1 °F 72% 30.20 in 10.0 mi West 17.3 mph 26.5 mph N/A   Scattered Clouds
6:13 AM 30.2 °F 18.9 °F 22.8 °F 74% 30.20 in 10.0 mi West 16.1 mph 23.0 mph N/A   Clear
6:33 AM 30.4 °F 19.1 °F 23.7 °F 76% 30.21 in 10.0 mi West 16.1 mph 23.0 mph N/A   Clear
6:53 AM 30.2 °F 21.3 °F 23.9 °F 77% 30.22 in 10.0 mi West 10.4 mph 17.3 mph N/A   Clear
7:13 AM 30.4 °F 21.0 °F 24.6 °F 79% 30.23 in 10.0 mi West 11.5 mph 20.7 mph N/A   Clear
7:33 AM 30.2 °F 20.2 °F 24.8 °F 80% 30.24 in 10.0 mi West 12.7 mph 19.6 mph N/A   Clear
7:53 AM 30.7 °F 20.4 °F 25.2 °F 80% 30.25 in 10.0 mi West 13.8 mph 17.3 mph N/A   Scattered Clouds
8:13 AM 31.8 °F 21.0 °F 25.7 °F 78% 30.26 in 10.0 mi West 16.1 mph 21.9 mph N/A   Overcast
8:33 AM 31.8 °F 20.2 °F 25.7 °F 78% 30.27 in 10.0 mi West 18.4 mph 23.0 mph N/A   Overcast
8:53 AM 32.0 °F 23.0 °F 26.1 °F 79% 30.28 in 10.0 mi West 11.5 mph 19.6 mph N/A Snow Light Snow
9:13 AM 32.0 °F 21.2 °F 26.2 °F 79% 30.29 in 10.0 mi West 16.1 mph 21.9 mph N/A Snow Light Snow
9:33 AM 32.5 °F 21.5 °F 26.6 °F 79% 30.29 in 10.0 mi West 17.3 mph - N/A   Overcast
9:53 AM 32.9 °F 23.2 °F 26.4 °F 77% 30.30 in 10.0 mi West 13.8 mph 20.7 mph N/A   Mostly Cloudy
10:13 AM 32.9 °F 24.1 °F 26.1 °F 76% 30.31 in 10.0 mi West 11.5 mph 19.6 mph N/A   Overcast
10:33 AM 33.6 °F 23.7 °F 26.6 °F 75% 30.32 in 10.0 mi West 15.0 mph - N/A   Overcast
10:53 AM 33.8 °F 24.8 °F 26.2 °F 74% 30.33 in 10.0 mi West 12.7 mph - N/A   Overcast
11:13 AM 34.0 °F 25.0 °F 26.4 °F 74% 30.33 in 10.0 mi West 12.7 mph 20.7 mph N/A   Overcast
11:33 AM 34.0 °F 23.4 °F 26.8 °F 75% 30.34 in 10.0 mi West 17.3 mph 20.7 mph N/A   Overcast
11:53 AM 34.7 °F 24.3 °F 27.0 °F 73% 30.33 in 10.0 mi West 17.3 mph - N/A   Mostly Cloudy
12:13 PM 35.2 °F 25.8 °F 27.0 °F 72% 30.33 in 10.0 mi West 15.0 mph - N/A   Mostly Cloudy
12:33 PM 36.1 °F 26.9 °F 27.3 °F 70% 30.34 in 10.0 mi West 15.0 mph 20.7 mph N/A   Scattered Clouds
12:53 PM 35.1 °F 26.9 °F 27.7 °F 74% 30.34 in 10.0 mi WSW 11.5 mph 17.3 mph N/A   Mostly Cloudy
1:14 PM 37.2 °F 30.6 °F 28.6 °F 71% 30.34 in 10.0 mi West 9.2 mph - N/A   Overcast
1:33 PM 36.3 °F 28.4 °F 27.3 °F 70% 30.34 in 10.0 mi West 11.5 mph 17.3 mph N/A   Mostly Cloudy
1:53 PM 36.1 °F 28.2 °F 27.3 °F 70% 30.34 in 10.0 mi West 11.5 mph - N/A   Scattered Clouds
2:33 PM 37.0 °F 30.4 °F 26.2 °F 65% 30.35 in 10.0 mi WSW 9.2 mph 18.4 mph N/A   Scattered Clouds
2:53 PM 36.3 °F 28.0 °F 23.7 °F 60% 30.35 in 10.0 mi WSW 12.7 mph 19.6 mph N/A   Scattered Clouds
3:13 PM 37.0 °F 29.8 °F 24.3 °F 60% 30.36 in 10.0 mi West 10.4 mph 18.4 mph N/A   Scattered Clouds
3:33 PM 36.1 °F 28.7 °F 24.3 °F 62% 30.36 in 10.0 mi WSW 10.4 mph 17.3 mph N/A   Mostly Cloudy
3:53 PM 36.0 °F 28.0 °F 23.5 °F 61% 30.36 in 10.0 mi West 11.5 mph 18.4 mph N/A   Mostly Cloudy
4:13 PM 35.6 °F 29.9 °F 23.9 °F 62% 30.37 in 10.0 mi WSW 6.9 mph 17.3 mph N/A   Mostly Cloudy
4:33 PM 36.0 °F 28.5 °F 24.6 °F 63% 30.38 in 10.0 mi WSW 10.4 mph 16.1 mph N/A   Overcast
4:53 PM 36.0 °F 29.0 °F 24.4 °F 63% 30.38 in 10.0 mi WSW 9.2 mph 19.6 mph N/A   Overcast
5:13 PM 36.1 °F 28.7 °F 24.8 °F 63% 30.39 in 10.0 mi SSW 10.4 mph 20.7 mph N/A   Overcast
5:33 PM 35.6 °F 29.2 °F 24.6 °F 64% 30.39 in 10.0 mi SW 8.1 mph 21.9 mph N/A   Overcast
5:53 PM 35.6 °F 27.5 °F 24.1 °F 63% 30.40 in 10.0 mi SW 11.5 mph 18.4 mph N/A   Overcast
6:13 PM 35.1 °F 27.4 °F 23.2 °F 62% 30.41 in 10.0 mi SW 10.4 mph 23.0 mph N/A   Overcast
6:33 PM 35.1 °F 27.4 °F 23.5 °F 63% 30.41 in 10.0 mi SSW 10.4 mph 18.4 mph N/A   Overcast
6:53 PM 35.1 °F 27.4 °F 22.6 °F 61% 30.42 in 10.0 mi SSW 10.4 mph 20.7 mph N/A   Overcast
7:13 PM 35.1 °F 25.9 °F 22.8 °F 61% 30.42 in 10.0 mi SSW 13.8 mph 21.9 mph N/A   Overcast
7:33 PM 34.9 °F 25.7 °F 22.6 °F 61% 30.43 in 10.0 mi SSW 13.8 mph 19.6 mph N/A   Overcast
7:53 PM 34.7 °F 25.9 °F 22.5 °F 61% 30.43 in 10.0 mi SSW 12.7 mph 21.9 mph N/A   Overcast
8:13 PM 34.7 °F 25.5 °F 23.0 °F 62% 30.43 in 10.0 mi SSW 13.8 mph 20.7 mph N/A   Overcast
8:33 PM 34.3 °F 25.5 °F 22.5 °F 62% 30.43 in 10.0 mi South 12.7 mph 18.4 mph N/A   Overcast
8:53 PM 34.3 °F 25.0 °F 22.1 °F 61% 30.43 in 10.0 mi South 13.8 mph 20.7 mph N/A   Overcast
9:13 PM 34.3 °F 25.0 °F 21.9 °F 60% 30.44 in 10.0 mi South 13.8 mph 20.7 mph N/A   Overcast
9:33 PM 34.0 °F 25.5 °F 21.9 °F 61% 30.44 in 10.0 mi SSW 11.5 mph 20.7 mph N/A   Scattered Clouds
9:53 PM 34.0 °F 26.0 °F 22.1 °F 62% 30.44 in 10.0 mi SSW 10.4 mph 18.4 mph N/A   Clear
10:13 PM 34.2 °F 24.8 °F 22.5 °F 62% 30.44 in 10.0 mi SSW 13.8 mph 17.3 mph N/A   Clear
10:33 PM 34.2 °F 25.7 °F 22.6 °F 63% 30.44 in 10.0 mi SSW 11.5 mph - N/A   Scattered Clouds
10:53 PM 34.3 °F 25.9 °F 23.4 °F 64% 30.44 in 10.0 mi SSW 11.5 mph 18.4 mph N/A   Mostly Cloudy
11:13 PM 34.0 °F 26.6 °F 24.6 °F 69% 30.45 in 10.0 mi South 9.2 mph - N/A   Mostly Cloudy
11:33 PM 33.6 °F 25.6 °F 23.7 °F 67% 30.45 in 10.0 mi SSW 10.4 mph - N/A   Overcast
11:53 PM 33.8 °F 26.4 °F 23.7 °F 67% 30.44 in 10.0 mi SSW 9.2 mph 19.6 mph N/A   Scattered Clouds